Terminal Aerodrome Forecast
Issued by NWS Detroit/Pontiac, MI

Home | Current Version | Previous Version | Text Only | Print | Product List | Glossary On
Versions: 1 2 3 4 5 6 7 8 9 10 11 12 13 14 15 16 17 18 19 20 21 22 23 24 25 26 27
901
FTUS43 KDTX 222320
TAFDTW
TAF
KDTW 222320Z 2300/2406 15005KT P6SM SCT250
     FM230600 VRB03KT 4SM BR SKC
     FM230900 00000KT 2SM BR FEW250
     FM231300 13005KT P6SM SCT250=

USA.gov is the U.S. government's official web portal to all federal, state and local government web resources and services.